SPKMD EPDE-EPDE
Flight info
| Callsign | SPKMD |
|---|---|
| Flight time | 0h 20m |
| Altitude | 2500 |
| Route | DCT |
| Aircraft | DA40/L-SBDGRY/S |
Departure
| Time | 2026-04-21 17:19 |
|---|---|
| Airport | Deblin Military Air Base (EPDE) |
Arrival
| Time | 2026-04-21 17:40 |
|---|---|
| Airport | Deblin Military Air Base (EPDE) |
| Time | Latitude | Longitude | Altitude | Speed | Heading |
|---|---|---|---|---|---|
| 2026-04-21 16:57 | 51.55369 | 21.87229 | 380 ft | 0 kts | 352° |
| 2026-04-21 17:07 | 51.55380 | 21.87229 | 380 ft | 3 kts | 9° |
| 2026-04-21 17:08 | 51.55385 | 21.87232 | 380 ft | 3 kts | 32° |
| 2026-04-21 17:08 | 51.55393 | 21.87246 | 380 ft | 0 kts | 61° |
| 2026-04-21 17:08 | 51.55396 | 21.87292 | 382 ft | 9 kts | 88° |
| 2026-04-21 17:08 | 51.55402 | 21.87410 | 380 ft | 12 kts | 83° |
| 2026-04-21 17:09 | 51.55423 | 21.87684 | 381 ft | 10 kts | 98° |
| 2026-04-21 17:09 | 51.55386 | 21.87802 | 380 ft | 13 kts | 121° |
| 2026-04-21 17:09 | 51.55334 | 21.87941 | 380 ft | 16 kts | 121° |
| 2026-04-21 17:10 | 51.55272 | 21.88110 | 380 ft | 19 kts | 120° |
| 2026-04-21 17:10 | 51.55200 | 21.88301 | 381 ft | 21 kts | 120° |
| 2026-04-21 17:10 | 51.55121 | 21.88513 | 381 ft | 23 kts | 122° |
| 2026-04-21 17:10 | 51.55036 | 21.88745 | 381 ft | 25 kts | 121° |
| 2026-04-21 17:11 | 51.54944 | 21.88992 | 381 ft | 26 kts | 121° |
| 2026-04-21 17:11 | 51.54853 | 21.89239 | 381 ft | 24 kts | 121° |
| 2026-04-21 17:11 | 51.54785 | 21.89420 | 381 ft | 18 kts | 121° |
| 2026-04-21 17:11 | 51.54753 | 21.89517 | 381 ft | 0 kts | 100° |
| 2026-04-21 17:12 | 51.54753 | 21.89519 | 381 ft | 1 kts | 89° |
| 2026-04-21 17:12 | 51.54766 | 21.89552 | 381 ft | 5 kts | 40° |
| 2026-04-21 17:12 | 51.54814 | 21.89594 | 381 ft | 11 kts | 29° |
| 2026-04-21 17:12 | 51.54851 | 21.89629 | 381 ft | 0 kts | 28° |
| 2026-04-21 17:16 | 51.54881 | 21.89655 | 381 ft | 10 kts | 27° |
| 2026-04-21 17:16 | 51.54944 | 21.89649 | 379 ft | 8 kts | 318° |
| 2026-04-21 17:16 | 51.54954 | 21.89628 | 379 ft | 0 kts | 301° |
| 2026-04-21 17:17 | 51.54983 | 21.89553 | 379 ft | 19 kts | 302° |
| 2026-04-21 17:17 | 51.55107 | 21.89225 | 380 ft | 49 kts | 300° |
| 2026-04-21 17:17 | 51.55329 | 21.88627 | 382 ft | 76 kts | 300° |
| 2026-04-21 17:18 | 51.55623 | 21.87806 | 441 ft | 85 kts | 305° |
| 2026-04-21 17:18 | 51.55932 | 21.87023 | 595 ft | 79 kts | 308° |
| 2026-04-21 17:18 | 51.56207 | 21.86320 | 794 ft | 72 kts | 288° |
| 2026-04-21 17:18 | 51.56156 | 21.85497 | 916 ft | 89 kts | 229° |
| 2026-04-21 17:19 | 51.55556 | 21.85878 | 860 ft | 116 kts | 124° |
| 2026-04-21 17:19 | 51.55055 | 21.86832 | 1219 ft | 110 kts | 129° |
| 2026-04-21 17:19 | 51.54513 | 21.87691 | 1487 ft | 110 kts | 129° |
| 2026-04-21 17:19 | 51.53987 | 21.88604 | 1663 ft | 112 kts | 125° |
| 2026-04-21 17:20 | 51.53497 | 21.89574 | 1860 ft | 112 kts | 121° |
| 2026-04-21 17:20 | 51.53016 | 21.90567 | 2079 ft | 113 kts | 121° |
| 2026-04-21 17:20 | 51.52540 | 21.91574 | 2292 ft | 114 kts | 120° |
| 2026-04-21 17:20 | 51.52082 | 21.92610 | 2517 ft | 113 kts | 118° |
| 2026-04-21 17:21 | 51.51688 | 21.93694 | 2747 ft | 112 kts | 111° |
| 2026-04-21 17:21 | 51.51667 | 21.94954 | 2455 ft | 128 kts | 58° |
| 2026-04-21 17:21 | 51.52361 | 21.95619 | 2163 ft | 117 kts | 357° |
| 2026-04-21 17:21 | 51.53039 | 21.94765 | 1527 ft | 137 kts | 314° |
| 2026-04-21 17:22 | 51.53379 | 21.93878 | 1090 ft | 141 kts | 301° |
| 2026-04-21 17:22 | 51.54003 | 21.92192 | 603 ft | 121 kts | 304° |
| 2026-04-21 17:22 | 51.54401 | 21.91103 | 439 ft | 106 kts | 303° |
| 2026-04-21 17:22 | 51.54757 | 21.90135 | 395 ft | 97 kts | 304° |
| 2026-04-21 17:23 | 51.55101 | 21.89231 | 392 ft | 93 kts | 304° |
| 2026-04-21 17:23 | 51.55433 | 21.88335 | 463 ft | 96 kts | 303° |
| 2026-04-21 17:23 | 51.55789 | 21.87394 | 648 ft | 104 kts | 306° |
| 2026-04-21 17:23 | 51.56189 | 21.86415 | 891 ft | 103 kts | 303° |
| 2026-04-21 17:24 | 51.55819 | 21.85731 | 934 ft | 127 kts | 152° |
| 2026-04-21 17:24 | 51.55266 | 21.86731 | 1218 ft | 117 kts | 123° |
| 2026-04-21 17:24 | 51.54783 | 21.87758 | 1493 ft | 113 kts | 120° |
| 2026-04-21 17:24 | 51.54375 | 21.88819 | 1709 ft | 111 kts | 116° |
| 2026-04-21 17:25 | 51.53960 | 21.89871 | 1924 ft | 113 kts | 116° |
| 2026-04-21 17:25 | 51.53521 | 21.90962 | 2088 ft | 118 kts | 117° |
| 2026-04-21 17:25 | 51.53088 | 21.92089 | 2253 ft | 120 kts | 115° |
| 2026-04-21 17:25 | 51.52670 | 21.93241 | 2472 ft | 117 kts | 115° |
| 2026-04-21 17:26 | 51.52878 | 21.94096 | 2374 ft | 129 kts | 348° |
| 2026-04-21 17:26 | 51.53648 | 21.93150 | 1467 ft | 151 kts | 314° |
| 2026-04-21 17:26 | 51.54166 | 21.91704 | 814 ft | 143 kts | 303° |
| 2026-04-21 17:26 | 51.54667 | 21.90417 | 425 ft | 127 kts | 303° |
| 2026-04-21 17:27 | 51.55076 | 21.89328 | 398 ft | 105 kts | 304° |
| 2026-04-21 17:27 | 51.55440 | 21.88360 | 411 ft | 99 kts | 303° |
| 2026-04-21 17:27 | 51.55797 | 21.87347 | 595 ft | 106 kts | 301° |
| 2026-04-21 17:27 | 51.56137 | 21.86338 | 910 ft | 100 kts | 301° |
| 2026-04-21 17:28 | 51.56505 | 21.85361 | 1135 ft | 105 kts | 308° |
| 2026-04-21 17:28 | 51.56969 | 21.84391 | 1317 ft | 114 kts | 316° |
| 2026-04-21 17:28 | 51.57545 | 21.83493 | 1537 ft | 115 kts | 323° |
| 2026-04-21 17:28 | 51.58109 | 21.82626 | 1818 ft | 111 kts | 320° |
| 2026-04-21 17:29 | 51.58618 | 21.81664 | 1982 ft | 118 kts | 311° |
| 2026-04-21 17:29 | 51.59086 | 21.80520 | 2089 ft | 125 kts | 306° |
| 2026-04-21 17:29 | 51.59503 | 21.79302 | 2255 ft | 123 kts | 302° |
| 2026-04-21 17:29 | 51.59862 | 21.78012 | 2258 ft | 136 kts | 296° |
| 2026-04-21 17:30 | 51.60158 | 21.76520 | 2250 ft | 140 kts | 288° |
| 2026-04-21 17:30 | 51.60183 | 21.75005 | 2385 ft | 138 kts | 254° |
| 2026-04-21 17:30 | 51.59680 | 21.73730 | 2536 ft | 135 kts | 225° |
| 2026-04-21 17:30 | 51.58892 | 21.72857 | 2426 ft | 151 kts | 205° |
| 2026-04-21 17:31 | 51.57962 | 21.72046 | 2303 ft | 152 kts | 210° |
| 2026-04-21 17:31 | 51.57109 | 21.71139 | 2363 ft | 144 kts | 213° |
| 2026-04-21 17:31 | 51.56287 | 21.70257 | 2413 ft | 140 kts | 211° |
| 2026-04-21 17:31 | 51.55525 | 21.69285 | 2394 ft | 142 kts | 236° |
| 2026-04-21 17:32 | 51.55213 | 21.68361 | 2410 ft | 140 kts | 244° |
| 2026-04-21 17:32 | 51.54146 | 21.67371 | 2375 ft | 143 kts | 178° |
| 2026-04-21 17:32 | 51.53377 | 21.68133 | 2224 ft | 136 kts | 111° |
| 2026-04-21 17:32 | 51.53117 | 21.69599 | 2101 ft | 134 kts | 103° |
| 2026-04-21 17:33 | 51.52800 | 21.70952 | 2171 ft | 126 kts | 108° |
| 2026-04-21 17:33 | 51.52563 | 21.71822 | 2128 ft | 129 kts | 108° |
| 2026-04-21 17:33 | 51.52297 | 21.73171 | 2129 ft | 127 kts | 102° |
| 2026-04-21 17:33 | 51.52056 | 21.74548 | 2096 ft | 128 kts | 102° |
| 2026-04-21 17:34 | 51.51804 | 21.75911 | 2090 ft | 127 kts | 103° |
| 2026-04-21 17:34 | 51.51544 | 21.77274 | 2080 ft | 127 kts | 103° |
| 2026-04-21 17:34 | 51.51299 | 21.78628 | 2065 ft | 126 kts | 101° |
| 2026-04-21 17:34 | 51.51049 | 21.79981 | 2064 ft | 126 kts | 102° |
| 2026-04-21 17:35 | 51.50811 | 21.81323 | 2111 ft | 124 kts | 100° |
| 2026-04-21 17:35 | 51.50627 | 21.82661 | 2161 ft | 121 kts | 96° |
| 2026-04-21 17:35 | 51.50475 | 21.83982 | 2207 ft | 121 kts | 94° |
| 2026-04-21 17:35 | 51.50385 | 21.85312 | 2224 ft | 121 kts | 88° |
| 2026-04-21 17:36 | 51.50383 | 21.86660 | 2259 ft | 121 kts | 85° |
| 2026-04-21 17:36 | 51.50404 | 21.88075 | 2088 ft | 129 kts | 85° |
| 2026-04-21 17:36 | 51.50413 | 21.89471 | 2059 ft | 125 kts | 87° |
| 2026-04-21 17:36 | 51.50371 | 21.90848 | 2038 ft | 122 kts | 90° |
| 2026-04-21 17:37 | 51.50321 | 21.92179 | 2010 ft | 119 kts | 87° |
| 2026-04-21 17:37 | 51.50425 | 21.93555 | 1789 ft | 126 kts | 76° |
| 2026-04-21 17:37 | 51.50698 | 21.94888 | 1661 ft | 124 kts | 64° |
| 2026-04-21 17:37 | 51.51294 | 21.95743 | 1509 ft | 115 kts | 20° |
| 2026-04-21 17:38 | 51.52076 | 21.95882 | 1267 ft | 114 kts | 357° |
| 2026-04-21 17:38 | 51.52781 | 21.95387 | 1005 ft | 112 kts | 320° |
| 2026-04-21 17:38 | 51.53200 | 21.94416 | 941 ft | 97 kts | 303° |
| 2026-04-21 17:38 | 51.53521 | 21.93505 | 820 ft | 93 kts | 301° |
| 2026-04-21 17:39 | 51.53842 | 21.92599 | 670 ft | 93 kts | 304° |
| 2026-04-21 17:39 | 51.54175 | 21.91711 | 553 ft | 93 kts | 303° |
| 2026-04-21 17:39 | 51.54501 | 21.90825 | 434 ft | 92 kts | 304° |
| 2026-04-21 17:39 | 51.54819 | 21.89980 | 385 ft | 83 kts | 304° |
| 2026-04-21 17:40 | 51.55041 | 21.89397 | 378 ft | 43 kts | 301° |
| 2026-04-21 17:40 | 51.55185 | 21.89010 | 381 ft | 35 kts | 300° |
| 2026-04-21 17:40 | 51.55270 | 21.88765 | 381 ft | 21 kts | 283° |
| 2026-04-21 17:40 | 51.55262 | 21.88679 | 381 ft | 0 kts | 236° |
| 2026-04-21 17:41 | 51.55247 | 21.88662 | 381 ft | 6 kts | 209° |
| 2026-04-21 17:41 | 51.55197 | 21.88615 | 381 ft | 10 kts | 210° |
| 2026-04-21 17:41 | 51.55141 | 21.88558 | 380 ft | 5 kts | 217° |
| 2026-04-21 17:41 | 51.55138 | 21.88554 | 380 ft | 0 kts | 224° |
| 2026-04-21 17:42 | 51.55127 | 21.88519 | 380 ft | 6 kts | 261° |
| 2026-04-21 17:42 | 51.55133 | 21.88478 | 380 ft | 6 kts | 303° |
| 2026-04-21 17:42 | 51.55162 | 21.88403 | 380 ft | 10 kts | 302° |
| 2026-04-21 17:42 | 51.55206 | 21.88285 | 380 ft | 15 kts | 302° |
| 2026-04-21 17:43 | 51.55266 | 21.88125 | 380 ft | 18 kts | 299° |
| 2026-04-21 17:43 | 51.55333 | 21.87944 | 380 ft | 20 kts | 300° |
| 2026-04-21 17:43 | 51.55385 | 21.87804 | 380 ft | 12 kts | 301° |
| 2026-04-21 17:43 | 51.55416 | 21.87706 | 380 ft | 9 kts | 285° |
| 2026-04-21 17:44 | 51.55419 | 21.87611 | 380 ft | 7 kts | 262° |
| 2026-04-21 17:44 | 51.55412 | 21.87529 | 380 ft | 2 kts | 256° |
| 2026-04-21 17:44 | 51.55410 | 21.87521 | 380 ft | 2 kts | 233° |
| 2026-04-21 17:44 | 51.55402 | 21.87513 | 380 ft | 1 kts | 200° |
| 2026-04-21 17:45 | 51.55394 | 21.87512 | 380 ft | 0 kts | 175° |